createdAt,value
2022-10-10T00:01:51.315Z,99.99
2022-10-10T00:02:51.178Z,99.99
2022-10-10T00:04:54.765Z,99.99
2022-10-10T00:05:54.773Z,99.99
2022-10-10T00:07:59.289Z,99.99
2022-10-10T00:08:58.810Z,99.99
2022-10-10T00:11:02.816Z,99.99
2022-10-10T00:12:02.830Z,99.99
2022-10-10T00:15:11.301Z,99.99
2022-10-10T00:16:10.854Z,99.99
2022-10-10T00:18:14.840Z,99.99
2022-10-10T00:19:14.848Z,99.99
2022-10-10T00:21:19.332Z,99.99
2022-10-10T00:22:18.864Z,99.99
2022-10-10T00:24:22.890Z,99.99
2022-10-10T00:25:22.912Z,99.99
2022-10-10T00:27:27.388Z,99.99
2022-10-10T00:28:26.968Z,99.99
2022-10-10T00:30:30.943Z,99.99
2022-10-10T00:31:30.958Z,99.99
2022-10-10T00:33:24.429Z,99.99
2022-10-10T00:34:24.098Z,99.99
2022-10-10T00:36:28.114Z,99.99
2022-10-10T00:37:28.115Z,99.99
2022-10-10T00:39:32.611Z,99.99
2022-10-10T00:40:32.141Z,99.99
2022-10-10T00:42:25.078Z,99.99
2022-10-10T00:43:25.082Z,99.99
2022-10-10T00:45:29.567Z,99.99
2022-10-10T00:46:29.103Z,99.99
2022-10-10T00:48:33.105Z,99.99
2022-10-10T00:49:33.120Z,99.99
2022-10-10T00:51:37.606Z,99.99
2022-10-10T00:52:37.140Z,99.99
2022-10-10T00:54:41.147Z,99.99
2022-10-10T00:55:41.158Z,99.99
2022-10-10T00:57:45.650Z,99.99
2022-10-10T00:58:45.180Z,99.99
2022-10-10T01:00:49.226Z,99.99
2022-10-10T01:01:49.198Z,99.99
2022-10-10T01:03:53.685Z,99.99
2022-10-10T01:04:53.216Z,99.99
2022-10-10T01:06:57.233Z,99.99
2022-10-10T01:07:57.243Z,99.99
2022-10-10T01:10:01.733Z,99.99
2022-10-10T01:11:01.267Z,99.99
2022-10-10T01:13:05.273Z,99.99
2022-10-10T01:14:05.288Z,99.99
2022-10-10T01:17:14.266Z,99.99
2022-10-10T01:18:13.799Z,99.99
2022-10-10T01:19:13.818Z,99.99
2022-10-10T01:20:13.840Z,99.99
2022-10-10T01:21:13.859Z,99.99
2022-10-10T01:22:13.878Z,99.99
2022-10-10T01:23:13.898Z,99.99
2022-10-10T01:24:13.917Z,99.99
2022-10-10T01:25:13.940Z,99.99
2022-10-10T01:26:13.960Z,99.99
2022-10-10T01:27:13.982Z,99.99
2022-10-10T01:28:14.023Z,99.99
2022-10-10T01:29:14.019Z,99.99
2022-10-10T01:30:14.039Z,99.99
2022-10-10T01:31:14.062Z,99.99
2022-10-10T01:32:14.083Z,99.99
2022-10-10T01:33:14.102Z,99.99
2022-10-10T01:34:14.129Z,99.99
2022-10-10T01:35:14.158Z,99.99
2022-10-10T01:36:14.164Z,99.99
2022-10-10T01:37:14.185Z,99.99
2022-10-10T01:38:14.204Z,99.99
2022-10-10T01:39:14.225Z,99.99
2022-10-10T01:40:14.245Z,99.99
2022-10-10T01:41:14.269Z,99.99
2022-10-10T01:42:14.285Z,99.99
2022-10-10T01:43:14.309Z,99.99
2022-10-10T01:44:14.328Z,99.99
2022-10-10T01:45:14.348Z,99.99
2022-10-10T01:46:14.369Z,99.99
2022-10-10T01:47:14.384Z,99.99
2022-10-10T01:48:14.407Z,99.99
2022-10-10T01:49:14.432Z,99.99
2022-10-10T01:50:14.451Z,99.99
2022-10-10T01:51:14.472Z,99.99
2022-10-10T01:52:14.489Z,99.99
2022-10-10T01:53:14.517Z,99.99
2022-10-10T01:54:14.531Z,99.99
2022-10-10T01:55:14.550Z,99.99
2022-10-10T01:56:14.579Z,99.99
2022-10-10T01:57:14.593Z,99.99
2022-10-10T01:58:14.613Z,99.99
2022-10-10T01:59:14.636Z,99.99
2022-10-10T02:00:14.653Z,99.99
2022-10-10T02:01:14.701Z,99.99
2022-10-10T02:02:14.694Z,99.99
2022-10-10T02:03:14.714Z,99.99
2022-10-10T02:04:14.739Z,99.99
2022-10-10T02:05:14.757Z,99.99
2022-10-10T02:06:14.769Z,99.99
2022-10-10T02:07:14.795Z,99.99
2022-10-10T02:08:14.817Z,99.99
2022-10-10T02:09:14.838Z,99.99
2022-10-10T02:10:14.859Z,99.99
2022-10-10T02:11:14.877Z,99.99
2022-10-10T02:12:14.899Z,99.99
2022-10-10T02:13:14.919Z,99.99
2022-10-10T02:14:14.938Z,99.99
2022-10-10T02:15:22.137Z,99.99
2022-10-10T02:18:23.427Z,99.99
2022-10-10T02:19:22.954Z,99.99
2022-10-10T02:21:26.961Z,99.99
2022-10-10T02:22:26.972Z,99.99
2022-10-10T02:24:31.464Z,99.99
2022-10-10T02:25:30.990Z,99.99
2022-10-10T02:27:34.994Z,99.99
2022-10-10T02:28:35.041Z,99.99
2022-10-10T02:30:39.515Z,99.99
2022-10-10T02:31:39.040Z,99.99
2022-10-10T02:33:43.045Z,99.99
2022-10-10T02:34:43.053Z,99.99
2022-10-10T02:36:47.543Z,99.99
2022-10-10T02:37:47.082Z,99.99
2022-10-10T02:39:51.092Z,99.99
2022-10-10T02:40:51.107Z,99.99
2022-10-10T02:42:44.578Z,99.99
2022-10-10T02:43:44.049Z,99.99
2022-10-10T02:45:48.050Z,99.99
2022-10-10T02:46:48.067Z,99.99
2022-10-10T02:49:56.597Z,99.99
2022-10-10T02:50:56.248Z,99.99
2022-10-10T02:52:49.581Z,99.99
2022-10-10T02:53:49.194Z,99.99
2022-10-10T02:55:42.665Z,99.99
2022-10-10T02:56:42.331Z,99.99
2022-10-10T02:58:46.339Z,99.99
2022-10-10T02:59:46.347Z,99.99
2022-10-10T03:01:50.837Z,99.99
2022-10-10T03:02:50.716Z,99.99
2022-10-10T03:04:54.368Z,99.99
2022-10-10T03:05:54.377Z,99.99
2022-10-10T03:07:58.865Z,99.99
2022-10-10T03:08:58.398Z,99.99
2022-10-10T03:11:02.424Z,99.99
2022-10-10T03:12:02.417Z,99.99
2022-10-10T03:14:06.907Z,99.99
2022-10-10T03:15:11.251Z,99.99
2022-10-10T03:17:10.441Z,99.99
2022-10-10T03:18:10.450Z,99.99
2022-10-10T03:20:14.931Z,99.99
2022-10-10T03:21:14.465Z,99.99
2022-10-10T03:23:18.478Z,99.99
2022-10-10T03:24:18.478Z,99.99
2022-10-10T03:26:22.974Z,99.99
2022-10-10T03:27:22.495Z,99.99
2022-10-10T03:29:26.508Z,99.99
2022-10-10T03:30:26.519Z,99.99
2022-10-10T03:32:19.988Z,99.99
2022-10-10T03:33:19.461Z,99.99
2022-10-10T03:35:23.465Z,99.99
2022-10-10T03:36:23.476Z,99.99
2022-10-10T03:38:27.987Z,99.99
2022-10-10T03:39:27.498Z,99.99
2022-10-10T03:41:31.500Z,99.99
2022-10-10T03:42:31.509Z,99.99
2022-10-10T03:44:36.058Z,99.99
2022-10-10T03:45:35.714Z,99.99
2022-10-10T03:47:39.722Z,99.99
2022-10-10T03:48:39.732Z,99.99
2022-10-10T03:50:44.220Z,99.99
2022-10-10T03:51:43.743Z,99.99
2022-10-10T03:53:47.755Z,99.99
2022-10-10T03:54:47.758Z,99.99
2022-10-10T03:56:52.249Z,99.99
2022-10-10T03:57:51.778Z,99.99
2022-10-10T03:59:55.789Z,99.99
2022-10-10T04:00:55.864Z,99.99
2022-10-10T04:02:49.591Z,99.99
2022-10-10T04:03:52.107Z,99.99
2022-10-10T04:05:52.737Z,99.99
2022-10-10T04:06:52.748Z,99.99
2022-10-10T04:08:57.234Z,99.99
2022-10-10T04:09:56.775Z,99.99
2022-10-10T04:11:49.706Z,99.99
2022-10-10T04:12:49.966Z,99.99
2022-10-10T04:14:54.199Z,99.99
2022-10-10T04:15:53.728Z,99.99
2022-10-10T04:17:57.742Z,99.99
2022-10-10T04:18:57.752Z,99.99
2022-10-10T04:21:02.243Z,99.99
2022-10-10T04:22:01.770Z,99.99
2022-10-10T04:24:05.777Z,99.99
2022-10-10T04:25:05.796Z,99.99
2022-10-10T04:27:10.279Z,99.99
2022-10-10T04:28:09.863Z,99.99
2022-10-10T04:30:13.807Z,99.99
2022-10-10T04:31:13.834Z,99.99
2022-10-10T04:33:18.304Z,99.99
2022-10-10T04:34:17.838Z,99.99
2022-10-10T04:36:21.836Z,99.99
2022-10-10T04:37:21.851Z,99.99
2022-10-10T04:39:26.335Z,99.99
2022-10-10T04:40:27.047Z,99.99
2022-10-10T04:42:18.797Z,99.99
2022-10-10T04:43:18.804Z,99.99
2022-10-10T04:45:23.285Z,99.99
2022-10-10T04:46:22.821Z,99.99
2022-10-10T04:48:26.829Z,99.99
2022-10-10T04:49:26.838Z,99.99
2022-10-10T04:51:31.323Z,99.99
2022-10-10T04:52:30.855Z,99.99
2022-10-10T04:54:34.862Z,99.99
2022-10-10T04:55:34.872Z,99.99
2022-10-10T04:57:39.358Z,99.99
2022-10-10T04:58:38.890Z,99.99
2022-10-10T05:00:42.897Z,99.99
2022-10-10T05:01:42.960Z,99.99
2022-10-10T05:03:47.395Z,99.99
2022-10-10T05:04:46.922Z,99.99
2022-10-10T05:06:50.926Z,99.99
2022-10-10T05:07:55.343Z,99.99
2022-10-10T05:09:55.446Z,99.99
2022-10-10T05:10:54.950Z,99.99
2022-10-10T05:12:48.098Z,99.99
2022-10-10T05:13:47.894Z,99.99
2022-10-10T05:15:52.388Z,99.99
2022-10-10T05:16:51.910Z,99.99
2022-10-10T05:18:55.915Z,99.99
2022-10-10T05:19:55.929Z,99.99
2022-10-10T05:21:49.400Z,99.99
2022-10-10T05:22:49.171Z,99.99
2022-10-10T05:24:52.868Z,99.99
2022-10-10T05:25:52.881Z,99.99
2022-10-10T05:27:57.365Z,99.99
2022-10-10T05:28:56.894Z,99.99
2022-10-10T05:31:00.901Z,99.99
2022-10-10T05:32:00.908Z,99.99
2022-10-10T05:34:05.394Z,99.99
2022-10-10T05:35:04.920Z,99.99
2022-10-10T05:37:08.922Z,99.99
2022-10-10T05:38:08.939Z,99.99
2022-10-10T05:40:13.421Z,99.99
2022-10-10T05:41:12.953Z,99.99
2022-10-10T05:43:16.954Z,99.99
2022-10-10T05:44:16.960Z,99.99
2022-10-10T05:46:21.452Z,99.99
2022-10-10T05:47:25.356Z,99.99
2022-10-10T05:49:24.997Z,99.99
2022-10-10T05:50:25.005Z,99.99
2022-10-10T05:52:18.478Z,99.99
2022-10-10T05:53:17.943Z,99.99
2022-10-10T05:55:21.965Z,99.99
2022-10-10T05:56:21.960Z,99.99
2022-10-10T05:58:26.447Z,99.99
2022-10-10T05:59:25.977Z,99.99
2022-10-10T06:01:29.977Z,99.99
2022-10-10T06:02:30.016Z,99.99
2022-10-10T06:04:34.473Z,99.99
2022-10-10T06:05:34.007Z,99.99
2022-10-10T06:07:59.860Z,99.99
2022-10-10T06:08:38.019Z,99.99
2022-10-10T06:10:42.508Z,99.99
2022-10-10T06:11:42.034Z,99.99
2022-10-10T06:13:34.975Z,99.99
2022-10-10T06:14:34.982Z,99.99
2022-10-10T06:16:39.477Z,99.99
2022-10-10T06:17:39.001Z,99.99
2022-10-10T06:19:43.004Z,99.99
2022-10-10T06:20:43.016Z,99.99
2022-10-10T06:22:36.489Z,99.99
2022-10-10T06:23:35.955Z,99.99
2022-10-10T06:25:41.578Z,99.99
2022-10-10T06:26:39.970Z,99.99
2022-10-10T06:28:33.491Z,99.99
2022-10-10T06:29:33.108Z,99.99
2022-10-10T06:31:37.126Z,99.99
2022-10-10T06:32:37.136Z,99.99
2022-10-10T06:34:41.619Z,99.99
2022-10-10T06:35:41.150Z,99.99
2022-10-10T06:37:45.153Z,99.99
2022-10-10T06:38:45.165Z,99.99
2022-10-10T06:40:49.663Z,99.99
2022-10-10T06:41:49.187Z,99.99
2022-10-10T06:43:53.187Z,99.99
2022-10-10T06:44:53.202Z,99.99
2022-10-10T06:46:57.687Z,99.99
2022-10-10T06:47:57.221Z,99.99
2022-10-10T06:50:01.217Z,99.99
2022-10-10T06:51:01.229Z,99.99
2022-10-10T06:53:05.719Z,99.99
2022-10-10T06:54:05.258Z,99.99
2022-10-10T06:56:09.263Z,99.99
2022-10-10T06:57:09.274Z,99.99
2022-10-10T06:59:13.757Z,99.99
2022-10-10T07:00:13.291Z,99.99
2022-10-10T07:02:06.219Z,99.99
2022-10-10T07:03:06.230Z,99.99
2022-10-10T07:05:10.727Z,99.99
2022-10-10T07:06:10.245Z,99.99
2022-10-10T07:08:14.252Z,99.99
2022-10-10T07:09:14.260Z,99.99
2022-10-10T07:11:18.748Z,99.99
2022-10-10T07:12:18.288Z,99.99
2022-10-10T07:14:22.295Z,99.99
2022-10-10T07:15:22.306Z,99.99
2022-10-10T07:17:26.801Z,99.99
2022-10-10T07:18:26.327Z,99.99
2022-10-10T07:20:19.466Z,99.99
2022-10-10T07:21:19.472Z,99.99
2022-10-10T07:23:23.961Z,99.99
2022-10-10T07:24:23.492Z,99.99
2022-10-10T07:26:27.502Z,99.99
2022-10-10T07:27:27.510Z,99.99
2022-10-10T07:29:20.986Z,99.99
2022-10-10T07:30:20.654Z,99.99
2022-10-10T07:32:13.598Z,99.99
2022-10-10T07:33:13.604Z,99.99
2022-10-10T07:35:18.091Z,99.99
2022-10-10T07:36:17.632Z,99.99
2022-10-10T07:38:21.654Z,99.99
2022-10-10T07:39:21.712Z,99.99
2022-10-10T07:41:26.153Z,99.99
2022-10-10T07:42:25.686Z,99.99
2022-10-10T07:44:34.241Z,99.99
2022-10-10T07:45:29.703Z,99.99
2022-10-10T07:47:34.194Z,99.99
2022-10-10T07:48:33.726Z,99.99
2022-10-10T07:50:37.731Z,99.99
2022-10-10T07:51:37.745Z,99.99
2022-10-10T07:53:42.241Z,99.99
2022-10-10T07:54:41.761Z,99.99
2022-10-10T07:56:45.768Z,99.99
2022-10-10T07:57:47.864Z,99.99
2022-10-10T07:59:50.273Z,99.99
2022-10-10T08:00:49.808Z,99.99
2022-10-10T08:02:42.738Z,99.99
2022-10-10T08:03:42.753Z,99.99
2022-10-10T08:05:47.268Z,99.99
2022-10-10T08:06:46.779Z,99.99
2022-10-10T08:08:52.138Z,99.99
2022-10-10T08:09:50.795Z,99.99
2022-10-10T08:11:44.275Z,99.99
2022-10-10T08:12:43.941Z,99.99
2022-10-10T08:14:47.951Z,99.99
2022-10-10T08:15:47.966Z,99.99
2022-10-10T08:17:54.284Z,99.99
2022-10-10T08:18:51.995Z,99.99
2022-10-10T08:20:56.024Z,99.99
2022-10-10T08:21:56.061Z,99.99
2022-10-10T08:22:56.047Z,99.99
2022-10-10T08:23:56.067Z,99.99
2022-10-10T08:24:56.088Z,99.99
2022-10-10T08:25:56.109Z,99.99
2022-10-10T08:26:56.151Z,99.99
2022-10-10T08:27:56.156Z,99.99
2022-10-10T08:28:56.181Z,99.52
2022-10-10T08:29:56.200Z,99.52
2022-10-10T08:30:56.226Z,99.71
2022-10-10T08:31:56.251Z,99.23
2022-10-10T08:32:56.269Z,98.66
2022-10-10T08:33:56.290Z,98.75
2022-10-10T08:34:56.318Z,98.47
2022-10-10T08:35:56.340Z,98.28
2022-10-10T08:36:56.359Z,98.33
2022-10-10T08:37:56.384Z,98.42
2022-10-10T08:38:56.407Z,98.13
2022-10-10T08:39:56.432Z,97.85
2022-10-10T08:40:56.452Z,97.08
2022-10-10T08:41:56.477Z,96.89
2022-10-10T08:42:56.770Z,96.80
2022-10-10T08:43:56.522Z,96.80
2022-10-10T08:44:56.549Z,96.80
2022-10-10T08:45:56.586Z,96.51
2022-10-10T08:46:56.595Z,96.27
2022-10-10T08:47:56.618Z,95.51
2022-10-10T08:48:56.638Z,95.98
2022-10-10T08:49:56.665Z,95.32
2022-10-10T08:50:56.687Z,95.61
2022-10-10T08:51:56.713Z,95.89
2022-10-10T08:52:56.737Z,95.89
2022-10-10T08:53:56.757Z,95.89
2022-10-10T08:54:58.593Z,95.94
2022-10-10T08:55:56.805Z,95.17
2022-10-10T08:56:56.829Z,95.17
2022-10-10T08:57:56.867Z,94.98
2022-10-10T08:58:56.877Z,95.17
2022-10-10T08:59:56.903Z,95.17
2022-10-10T09:00:56.944Z,94.31
2022-10-10T09:02:17.707Z,93.84
2022-10-10T09:02:57.289Z,94.31
2022-10-10T09:03:56.998Z,94.41
2022-10-10T09:04:57.026Z,94.31
2022-10-10T09:05:57.047Z,94.45
2022-10-10T09:06:57.071Z,94.17
2022-10-10T09:07:57.093Z,93.40
2022-10-10T09:08:57.116Z,93.79
2022-10-10T09:09:57.141Z,93.59
2022-10-10T09:10:57.445Z,93.21
2022-10-10T09:11:57.188Z,92.92
2022-10-10T09:12:57.221Z,93.02
2022-10-10T09:13:57.236Z,93.21
2022-10-10T09:15:01.938Z,92.63
2022-10-10T09:15:57.286Z,92.49
2022-10-10T09:16:57.310Z,92.40
2022-10-10T09:17:57.333Z,92.21
2022-10-10T09:18:57.362Z,90.96
2022-10-10T09:19:57.386Z,90.77
2022-10-10T09:20:57.613Z,90.29
2022-10-10T09:21:57.451Z,90.96
2022-10-10T09:22:57.449Z,90.19
2022-10-10T09:23:57.481Z,90.19
2022-10-10T09:24:57.505Z,90.29
2022-10-10T09:25:57.530Z,90.39
2022-10-10T09:26:57.555Z,90.48
2022-10-10T09:27:57.578Z,90.23
2022-10-10T09:28:57.606Z,90.14
2022-10-10T09:29:57.628Z,89.47
2022-10-10T09:30:57.954Z,88.51
2022-10-10T09:31:57.690Z,88.09
2022-10-10T09:32:57.697Z,87.51
2022-10-10T09:33:57.727Z,88.23
2022-10-10T09:34:57.868Z,88.23
2022-10-10T09:35:57.773Z,88.42
2022-10-10T09:36:59.483Z,87.94
2022-10-10T09:37:57.824Z,87.46
2022-10-10T09:38:57.847Z,87.08
2022-10-10T09:39:57.871Z,87.17
2022-10-10T09:40:58.152Z,87.17
2022-10-10T09:41:57.921Z,87.65
2022-10-10T09:42:57.957Z,87.55
2022-10-10T09:43:57.970Z,87.27
2022-10-10T09:44:57.994Z,87.46
2022-10-10T09:45:58.020Z,86.88
2022-10-10T09:46:58.046Z,86.98
2022-10-10T09:47:58.071Z,86.12
2022-10-10T09:48:58.091Z,86.79
2022-10-10T09:49:58.167Z,86.21
2022-10-10T09:50:58.347Z,86.02
2022-10-10T09:51:58.167Z,85.93
2022-10-10T09:52:58.195Z,85.93
2022-10-10T09:53:58.217Z,86.31
2022-10-10T09:54:58.254Z,86.31
2022-10-10T09:55:58.266Z,85.64
2022-10-10T09:56:58.296Z,85.83
2022-10-10T09:57:58.318Z,85.83
2022-10-10T09:58:58.343Z,85.83
2022-10-10T10:00:02.407Z,85.58
2022-10-10T10:00:58.769Z,85.54
2022-10-10T10:01:58.412Z,85.68
2022-10-10T10:02:58.440Z,85.88
2022-10-10T10:04:11.158Z,84.91
2022-10-10T10:04:58.490Z,84.44
2022-10-10T10:05:58.515Z,84.91
2022-10-10T10:07:05.718Z,85.49
2022-10-10T10:09:03.062Z,84.05
2022-10-10T10:10:02.567Z,84.05
2022-10-10T10:11:55.516Z,83.95
2022-10-10T10:12:55.534Z,84.28
2022-10-10T10:15:00.028Z,83.71
2022-10-10T10:15:59.584Z,82.85
2022-10-10T10:17:52.733Z,82.37
2022-10-10T10:18:52.747Z,82.27
2022-10-10T10:20:58.124Z,82.94
2022-10-10T10:21:56.798Z,82.37
2022-10-10T10:24:00.876Z,81.60
2022-10-10T10:25:00.832Z,81.54
2022-10-10T10:27:05.318Z,81.74
2022-10-10T10:28:05.022Z,81.54
2022-10-10T10:30:08.901Z,80.97
2022-10-10T10:31:08.916Z,80.97
2022-10-10T10:33:13.416Z,79.67
2022-10-10T10:34:12.953Z,79.19
2022-10-10T10:36:16.977Z,78.80
2022-10-10T10:37:16.991Z,78.99
2022-10-10T10:39:21.494Z,78.61
2022-10-10T10:40:21.029Z,78.52
2022-10-10T10:42:13.981Z,78.80
2022-10-10T10:43:13.989Z,79.09
2022-10-10T10:45:18.504Z,79.09
2022-10-10T10:46:18.030Z,78.99
2022-10-10T10:48:22.054Z,77.65
2022-10-10T10:49:25.391Z,77.08
2022-10-10T10:51:26.561Z,78.08
2022-10-10T10:52:26.101Z,77.98
2022-10-10T10:54:30.119Z,77.31
2022-10-10T10:55:32.903Z,77.21
2022-10-10T10:57:45.480Z,76.64
2022-10-10T10:59:09.927Z,76.92
2022-10-10T11:01:55.841Z,77.40
2022-10-10T11:05:20.536Z,77.98
2022-10-10T11:05:23.665Z,78.21
2022-10-10T11:07:00.002Z,77.50
2022-10-10T11:07:46.380Z,76.73
2022-10-10T11:09:51.095Z,76.96
2022-10-10T11:10:50.327Z,77.15
2022-10-10T11:12:43.264Z,76.77
2022-10-10T11:13:43.289Z,76.57
2022-10-10T11:16:04.778Z,76.48
2022-10-10T11:16:48.830Z,76.48
2022-10-10T11:18:51.335Z,77.15
2022-10-10T11:19:51.359Z,76.67
2022-10-10T11:21:55.853Z,76.57
2022-10-10T11:22:55.395Z,76.42
2022-10-10T11:24:59.416Z,75.84
2022-10-10T11:25:59.436Z,75.75
2022-10-10T11:28:03.946Z,75.07
2022-10-10T11:29:03.595Z,75.27
2022-10-10T11:31:07.511Z,74.88
2022-10-10T11:32:07.598Z,75.07
2022-10-10T11:34:12.105Z,74.02
2022-10-10T11:35:11.763Z,74.60
2022-10-10T11:37:15.785Z,74.30
2022-10-10T11:38:15.815Z,74.88
2022-10-10T11:40:20.303Z,73.35
2022-10-10T11:41:19.845Z,72.38
2022-10-10T11:43:23.871Z,71.61
2022-10-10T11:44:23.887Z,71.61
2022-10-10T11:46:28.381Z,71.14
2022-10-10T11:47:27.933Z,71.52
2022-10-10T11:49:31.952Z,72.09
2022-10-10T11:50:31.971Z,71.23
2022-10-10T11:51:31.999Z,71.61
2022-10-10T11:52:34.628Z,71.52
2022-10-10T11:53:32.051Z,72.29
2022-10-10T11:54:32.084Z,72.19
2022-10-10T11:55:32.158Z,71.46
2022-10-10T11:56:32.136Z,71.26
2022-10-10T11:57:32.159Z,70.07
2022-10-10T11:58:32.201Z,70.30
2022-10-10T11:59:32.234Z,70.50
2022-10-10T12:00:32.242Z,71.08
2022-10-10T12:01:32.264Z,70.78
2022-10-10T12:02:32.311Z,70.40
2022-10-10T12:03:32.325Z,70.59
2022-10-10T12:04:32.354Z,69.63
2022-10-10T12:05:32.376Z,70.21
2022-10-10T12:06:32.410Z,70.01
2022-10-10T12:07:32.438Z,69.24
2022-10-10T12:08:32.462Z,69.34
2022-10-10T12:09:32.528Z,69.34
2022-10-10T12:10:32.514Z,69.44
2022-10-10T12:11:32.545Z,69.34
2022-10-10T12:12:32.571Z,69.34
2022-10-10T12:13:32.594Z,69.53
2022-10-10T12:14:32.627Z,69.44
2022-10-10T12:15:35.197Z,70.01
2022-10-10T12:16:32.677Z,70.21
2022-10-10T12:17:32.705Z,70.27
2022-10-10T12:18:32.733Z,69.82
2022-10-10T12:19:32.765Z,69.79
2022-10-10T12:20:32.790Z,70.01
2022-10-10T12:21:32.814Z,70.30
2022-10-10T12:22:32.851Z,70.59
2022-10-10T12:23:32.871Z,71.08
2022-10-10T12:24:32.899Z,71.17
2022-10-10T12:25:32.931Z,71.26
2022-10-10T12:26:32.954Z,70.40
2022-10-10T12:27:32.992Z,70.59
2022-10-10T12:28:33.043Z,70.59
2022-10-10T12:29:33.039Z,70.59
2022-10-10T12:30:33.062Z,69.44
2022-10-10T12:31:33.091Z,69.92
2022-10-10T12:32:33.121Z,69.92
2022-10-10T12:33:33.170Z,70.21
2022-10-10T12:34:33.177Z,70.59
2022-10-10T12:35:33.200Z,69.24
2022-10-10T12:36:33.233Z,69.53
2022-10-10T12:37:33.258Z,68.90
2022-10-10T12:38:33.314Z,68.32
2022-10-10T12:39:33.318Z,68.51
2022-10-10T12:40:33.340Z,68.51
2022-10-10T12:41:33.367Z,69.47
2022-10-10T12:42:33.401Z,67.83
2022-10-10T12:43:33.428Z,67.26
2022-10-10T12:44:33.452Z,67.16
2022-10-10T12:45:33.476Z,66.78
2022-10-10T12:46:33.510Z,66.78
2022-10-10T12:47:53.021Z,66.97
2022-10-10T12:48:33.569Z,66.10
2022-10-10T12:49:33.589Z,66.97
2022-10-10T12:50:33.627Z,66.68
2022-10-10T12:51:33.648Z,67.16
2022-10-10T12:52:33.672Z,66.88
2022-10-10T12:53:33.703Z,67.35
2022-10-10T12:54:33.729Z,67.35
2022-10-10T12:55:33.762Z,67.35
2022-10-10T12:56:33.789Z,67.74
2022-10-10T12:57:33.822Z,67.45
2022-10-10T12:58:33.845Z,66.68
2022-10-10T12:59:33.877Z,67.35
2022-10-10T13:00:33.911Z,67.83
2022-10-10T13:01:33.968Z,67.45
2022-10-10T13:02:33.966Z,68.13
2022-10-10T13:03:33.987Z,67.26
2022-10-10T13:04:34.015Z,67.74
2022-10-10T13:05:34.041Z,67.55
2022-10-10T13:06:34.069Z,67.93
2022-10-10T13:07:34.104Z,67.45
2022-10-10T13:08:34.131Z,66.78
2022-10-10T13:09:35.564Z,66.97
2022-10-10T13:10:34.180Z,67.45
2022-10-10T13:11:34.212Z,67.35
2022-10-10T13:12:34.244Z,67.93
2022-10-10T13:13:34.279Z,67.49
2022-10-10T13:14:34.298Z,67.74
2022-10-10T13:15:34.350Z,67.83
2022-10-10T13:16:34.371Z,68.03
2022-10-10T13:17:34.382Z,67.39
2022-10-10T13:18:34.416Z,67.49
2022-10-10T13:19:34.432Z,67.97
2022-10-10T13:20:34.467Z,67.77
2022-10-10T13:21:34.495Z,67.68
2022-10-10T13:22:34.527Z,68.16
2022-10-10T13:23:34.558Z,66.81
2022-10-10T13:24:34.581Z,66.81
2022-10-10T13:25:34.612Z,65.37
2022-10-10T13:26:34.644Z,65.17
2022-10-10T13:27:34.666Z,65.46
2022-10-10T13:28:34.761Z,65.17
2022-10-10T13:29:34.719Z,65.88
2022-10-10T13:30:34.750Z,65.94
2022-10-10T13:31:34.815Z,66.14
2022-10-10T13:32:34.807Z,65.08
2022-10-10T13:33:34.834Z,65.01
2022-10-10T13:34:34.865Z,65.59
2022-10-10T13:35:34.911Z,64.69
2022-10-10T13:36:34.923Z,64.79
2022-10-10T13:37:34.950Z,64.69
2022-10-10T13:38:34.978Z,65.08
2022-10-10T13:39:35.050Z,65.46
2022-10-10T13:40:35.041Z,65.56
2022-10-10T13:41:35.062Z,65.56
2022-10-10T13:42:35.092Z,66.52
2022-10-10T13:43:35.120Z,66.81
2022-10-10T13:44:35.145Z,65.56
2022-10-10T13:45:35.177Z,65.46
2022-10-10T13:46:35.216Z,65.75
2022-10-10T13:47:35.243Z,65.85
2022-10-10T13:48:35.293Z,66.81
2022-10-10T13:49:35.353Z,66.42
2022-10-10T13:50:35.324Z,65.56
2022-10-10T13:51:35.347Z,66.04
2022-10-10T13:52:35.371Z,65.85
2022-10-10T13:53:35.402Z,64.95
2022-10-10T13:54:35.438Z,64.37
2022-10-10T13:55:35.458Z,64.56
2022-10-10T13:56:35.497Z,64.08
2022-10-10T13:57:35.528Z,64.08
2022-10-10T13:58:35.545Z,64.28
2022-10-10T13:59:35.578Z,64.95
2022-10-10T14:00:35.609Z,64.76
2022-10-10T14:01:35.708Z,64.66
2022-10-10T14:02:35.659Z,64.05
2022-10-10T14:03:35.688Z,63.99
2022-10-10T14:04:35.712Z,64.95
2022-10-10T14:05:35.742Z,64.66
2022-10-10T14:06:35.779Z,64.34
2022-10-10T14:07:35.798Z,64.47
2022-10-10T14:08:35.830Z,65.05
2022-10-10T14:09:35.854Z,64.92
2022-10-10T14:10:35.887Z,64.08
2022-10-10T14:11:35.913Z,64.08
2022-10-10T14:12:35.937Z,63.79
2022-10-10T14:13:35.965Z,64.56
2022-10-10T14:14:36.005Z,64.28
2022-10-10T14:15:36.028Z,64.63
2022-10-10T14:16:36.052Z,63.95
2022-10-10T14:17:36.078Z,65.01
2022-10-10T14:18:36.111Z,65.69
2022-10-10T14:19:36.208Z,65.20
2022-10-10T14:20:36.165Z,65.59
2022-10-10T14:21:36.193Z,66.17
2022-10-10T14:22:36.231Z,66.07
2022-10-10T14:23:36.248Z,65.97
2022-10-10T14:24:36.277Z,65.59
2022-10-10T14:25:36.305Z,65.97
2022-10-10T14:26:36.332Z,65.33
2022-10-10T14:27:37.209Z,65.50
2022-10-10T14:28:36.457Z,65.53
2022-10-10T14:29:36.415Z,66.10
2022-10-10T14:30:36.442Z,65.33
2022-10-10T14:31:36.476Z,65.40
2022-10-10T14:32:36.498Z,65.59
2022-10-10T14:33:36.530Z,65.50
2022-10-10T14:34:36.555Z,65.40
2022-10-10T14:35:36.587Z,65.97
2022-10-10T14:36:36.614Z,66.65
2022-10-10T14:37:36.660Z,66.55
2022-10-10T14:38:36.674Z,67.13
2022-10-10T14:39:36.697Z,67.90
2022-10-10T14:40:36.723Z,67.90
2022-10-10T14:41:36.751Z,67.90
2022-10-10T14:42:36.787Z,67.42
2022-10-10T14:43:36.808Z,67.03
2022-10-10T14:44:36.836Z,67.42
2022-10-10T14:45:36.863Z,67.58
2022-10-10T14:46:36.892Z,67.96
2022-10-10T14:47:36.919Z,67.86
2022-10-10T14:48:36.947Z,67.68
2022-10-10T14:49:36.973Z,68.06
2022-10-10T14:50:37.001Z,68.54
2022-10-10T14:51:37.028Z,68.83
2022-10-10T14:52:37.062Z,69.21
2022-10-10T14:53:37.086Z,68.83
2022-10-10T14:54:37.112Z,68.54
2022-10-10T14:55:37.141Z,68.25
2022-10-10T14:57:07.774Z,69.12
2022-10-10T14:57:37.192Z,69.60
2022-10-10T14:58:37.226Z,69.31
2022-10-10T14:59:48.763Z,69.40
2022-10-10T15:00:37.280Z,69.31
2022-10-10T15:01:37.306Z,69.89
2022-10-10T15:02:40.815Z,70.17
2022-10-10T15:03:37.419Z,70.27
2022-10-10T15:04:37.390Z,70.56
2022-10-10T15:05:37.418Z,69.98
2022-10-10T15:06:50.153Z,69.60
2022-10-10T15:07:37.472Z,70.07
2022-10-10T15:08:37.511Z,70.37
2022-10-10T15:09:43.044Z,70.27
2022-10-10T15:10:37.555Z,70.46
2022-10-10T15:11:37.585Z,70.46
2022-10-10T15:12:37.613Z,70.46
2022-10-10T15:13:37.635Z,69.69
2022-10-10T15:14:37.665Z,70.46
2022-10-10T15:15:37.695Z,70.46
2022-10-10T15:16:37.787Z,70.27
2022-10-10T15:17:37.746Z,70.84
2022-10-10T15:18:53.709Z,71.00
2022-10-10T15:19:37.801Z,71.33
2022-10-10T15:20:37.832Z,71.29
2022-10-10T15:21:37.858Z,71.39
2022-10-10T15:22:37.883Z,71.67
2022-10-10T15:23:37.918Z,71.96
2022-10-10T15:24:37.937Z,72.25
2022-10-10T15:25:37.967Z,71.96
2022-10-10T15:26:37.993Z,72.06
2022-10-10T15:27:38.018Z,72.25
2022-10-10T15:28:38.075Z,72.25
2022-10-10T15:29:38.074Z,72.44
2022-10-10T15:30:42.787Z,72.44
2022-10-10T15:31:38.133Z,72.54
2022-10-10T15:32:38.154Z,72.16
2022-10-10T15:33:38.180Z,72.54
2022-10-10T15:34:38.211Z,72.44
2022-10-10T15:36:03.910Z,72.50
2022-10-10T15:36:38.268Z,72.54
2022-10-10T15:37:38.290Z,72.54
2022-10-10T15:38:38.316Z,72.64
2022-10-10T15:39:38.345Z,72.92
2022-10-10T15:40:38.372Z,72.34
2022-10-10T15:41:38.404Z,73.11
2022-10-10T15:42:38.426Z,73.27
2022-10-10T15:43:38.452Z,73.02
2022-10-10T15:44:38.479Z,74.13
2022-10-10T15:45:54.987Z,74.04
2022-10-10T15:46:38.537Z,74.55
2022-10-10T15:47:41.796Z,76.25
2022-10-10T15:48:38.588Z,76.06
2022-10-10T15:49:38.613Z,77.59
2022-10-10T15:50:38.642Z,77.59
2022-10-10T15:51:38.675Z,76.92
2022-10-10T15:52:38.695Z,77.17
2022-10-10T15:53:38.722Z,77.69
2022-10-10T15:54:38.747Z,78.61
2022-10-10T15:55:38.777Z,78.80
2022-10-10T15:56:38.803Z,78.13
2022-10-10T15:57:38.828Z,78.70
2022-10-10T15:58:38.854Z,78.99
2022-10-10T15:59:41.859Z,79.09
2022-10-10T16:00:38.977Z,79.38
2022-10-10T16:01:38.941Z,79.38
2022-10-10T16:02:38.963Z,79.82
2022-10-10T16:03:38.997Z,79.53
2022-10-10T16:04:39.011Z,79.76